Date,TemperatureHighF,TemperatureAvgF,TemperatureLowF,DewpointHighF,DewpointAvgF,DewpointLowF,HumidityHigh,HumidityAvg,HumidityLow,PressureMaxIn,PressureMinIn,WindSpeedMaxMPH,WindSpeedAvgMPH,GustSpeedMaxMPH,PrecipitationSumIn
2013-1-1,52,45,37,38,32,28,96,62,45,0.00,40.00,4,2,8,0.00
2013-1-2,57,47,42,34,26,21,57,44,26,0.00,40.00,11,5,19,0.00
2013-1-3,49,45,40,43,35,22,98,73,34,0.00,40.00,25,17,42,0.38
2013-1-4,49,44,41,47,43,39,99,93,78,0.00,40.00,14,6,20,0.49
2013-1-5,45,43,39,42,39,36,97,87,72,0.00,40.00,16,11,23,0.13
2013-1-6,47,40,36,41,38,35,98,93,80,0.00,40.00,15,5,22,0.03
2013-1-7,46,44,40,46,43,37,99,98,84,0.00,40.00,18,11,25,0.42
2013-1-8,54,46,43,48,44,41,99,94,73,0.00,40.00,17,10,22,0.02
2013-1-9,44,39,33,44,38,32,99,96,85,0.00,40.00,24,10,37,0.86
2013-1-10,41,34,31,36,33,30,97,95,82,0.00,40.00,7,3,22,0.45
2013-1-11,40,34,30,38,32,28,97,94,87,0.00,40.00,5,2,19,0.50
2013-1-12,44,33,29,28,22,13,92,65,42,0.00,40.00,5,3,13,0.01
2013-1-13,41,32,26,22,18,13,82,58,44,0.00,40.00,7,4,15,0.01
2013-1-14,49,39,30,26,18,4,67,44,19,0.00,40.00,6,3,12,0.00
2013-1-15,65,45,34,35,27,7,74,53,10,0.00,40.00,6,4,13,0.00
2013-1-16,76,67,59,16,7,-1,12,9,6,0.00,40.00,7,4,15,0.00
2013-1-17,72,63,55,38,18,2,41,19,7,0.00,40.00,6,3,11,0.00
2013-1-18,67,57,52,30,19,14,29,23,14,0.00,40.00,6,2,9,0.00
2013-1-19,64,56,52,40,27,16,52,33,22,0.00,40.00,4,3,6,0.00
2013-1-20,63,54,49,35,22,13,51,29,17,0.00,40.00,6,3,9,0.00
2013-1-21,63,56,50,30,21,12,34,26,18,0.00,40.00,14,6,18,0.00
2013-1-22,61,54,46,35,22,9,66,32,14,0.00,40.00,21,15,36,0.00
2013-1-23,53,44,41,45,41,25,99,91,33,0.00,40.00,14,6,25,2.18
2013-1-24,55,48,43,48,45,43,99,92,70,0.00,40.00,15,10,22,0.04
2013-1-25,47,45,38,46,44,38,99,98,93,0.00,40.00,18,13,25,1.29
2013-1-26,44,39,35,40,38,34,99,95,85,0.00,40.00,9,4,15,0.43
2013-1-27,42,37,34,38,35,34,98,95,83,0.00,40.00,7,3,12,0.56
2013-1-28,41,39,37,40,38,36,99,98,98,0.00,40.00,7,5,15,0.92
2013-1-29,44,40,36,43,40,35,99,98,97,0.00,40.00,7,4,14,0.83
2013-1-30,51,42,35,46,39,34,99,92,74,0.00,40.00,8,4,16,0.02
2013-1-31,56,47,41,43,38,31,87,72,44,0.00,40.00,7,4,13,0.01
2013-2-1,64,55,50,42,35,28,61,47,38,0.00,40.00,6,3,7,0.00
2013-2-2,54,48,40,45,37,29,98,70,39,0.00,40.00,8,5,15,0.00
2013-2-3,49,43,40,41,40,38,98,90,71,0.00,40.00,6,3,11,0.01
2013-2-4,48,42,39,43,40,38,98,92,78,0.00,40.00,19,8,29,0.01
2013-2-5,44,42,39,43,41,38,98,97,93,0.00,40.00,19,13,28,0.30
2013-2-6,43,41,33,42,39,32,99,94,83,0.00,40.00,26,15,42,0.63
2013-2-7,37,35,33,36,34,32,98,97,92,0.00,40.00,16,8,22,1.14
2013-2-8,48,36,30,34,31,29,97,83,51,0.00,40.00,8,5,21,0.04
2013-2-9,51,39,32,37,32,29,93,78,52,0.00,40.00,8,6,18,0.01
2013-2-10,53,42,35,39,36,31,94,79,56,0.00,40.00,8,5,15,0.01
2013-2-11,57,43,34,38,34,28,93,72,46,0.00,40.00,7,5,17,0.00
2013-2-12,54,43,38,46,40,36,98,92,68,0.00,40.00,5,4,14,0.00
2013-2-13,54,44,37,44,40,36,98,90,62,0.00,40.00,7,4,15,0.00
2013-2-14,63,51,40,43,38,28,96,66,27,0.00,40.00,9,5,17,0.01
2013-2-15,67,58,49,36,31,27,54,36,27,0.00,40.00,14,8,20,0.01
2013-2-16,53,43,35,43,38,32,97,84,51,0.00,40.00,8,5,19,0.00
2013-2-17,48,38,32,36,33,29,96,80,60,0.00,40.00,9,4,17,0.00
2013-2-18,41,38,34,36,34,33,97,89,72,0.00,40.00,16,8,25,0.17
2013-2-19,39,34,32,37,33,31,98,96,91,0.00,40.00,19,6,35,0.71
2013-2-20,49,38,31,37,34,30,98,86,56,0.00,40.00,8,4,20,1.03
2013-2-21,46,38,32,35,33,29,97,83,58,0.00,40.00,7,3,11,0.24
2013-2-22,42,39,37,40,37,33,98,92,82,0.00,40.00,21,13,30,0.56
2013-2-23,43,36,32,39,34,29,97,92,79,0.00,40.00,7,4,21,0.33
2013-2-24,51,39,31,36,30,20,92,70,47,0.00,40.00,13,4,17,0.02
2013-2-25,46,39,32,40,36,29,98,89,69,0.00,40.00,15,6,22,0.25
2013-2-26,47,38,32,35,28,20,91,67,45,0.00,40.00,6,3,12,0.01
2013-2-27,50,44,39,44,34,23,98,70,44,0.00,40.00,18,11,28,0.56
2013-2-28,48,47,45,47,46,44,99,98,98,0.00,40.00,19,14,26,1.31
2013-3-1,55,48,45,53,47,44,99,97,91,0.00,40.00,9,4,12,0.03
2013-3-2,47,45,44,46,44,43,99,98,97,0.00,40.00,4,3,11,0.04
2013-3-3,53,44,35,44,37,29,99,81,55,0.00,40.00,7,5,15,0.02
2013-3-4,50,42,39,39,34,18,88,74,37,0.00,40.00,22,12,34,0.01
2013-3-5,43,38,35,40,35,20,97,91,40,0.00,40.00,25,16,36,2.36
2013-3-6,41,37,33,39,36,32,98,97,94,0.00,40.00,20,14,29,1.09
2013-3-7,49,41,35,40,36,32,98,84,65,0.00,40.00,13,6,21,0.27
2013-3-8,52,43,36,41,34,27,97,72,55,0.00,40.00,6,4,16,0.01
2013-3-9,62,47,35,43,37,25,96,70,41,0.00,40.00,7,4,16,0.00
2013-3-10,63,52,44,42,34,22,71,51,27,0.00,40.00,5,4,14,0.00
2013-3-11,61,52,44,48,43,37,93,73,54,0.00,40.00,7,4,11,0.00
2013-3-12,53,46,42,48,44,41,98,93,79,0.00,40.00,6,4,11,0.00
2013-3-13,62,49,42,43,40,33,97,73,36,0.00,40.00,8,4,11,0.00
2013-3-14,54,47,38,44,39,30,97,77,47,0.00,40.00,12,7,22,0.00
2013-3-15,61,49,43,50,45,41,97,85,63,0.00,40.00,6,3,12,0.00
2013-3-16,46,43,40,44,42,39,98,96,80,0.00,40.00,9,4,14,0.70
2013-3-17,51,40,32,39,35,31,98,85,54,0.00,40.00,8,5,18,0.67
2013-3-18,56,45,33,41,36,31,95,72,54,0.00,40.00,6,3,12,0.01
2013-3-19,50,45,41,45,37,23,98,75,36,0.00,40.00,34,20,55,0.80
2013-3-20,46,43,34,45,41,33,98,96,90,0.00,40.00,36,15,55,2.04
2013-3-21,45,37,31,40,32,27,96,84,67,0.00,40.00,8,4,20,0.04
2013-3-22,46,37,31,33,29,27,90,76,48,0.00,40.00,8,6,21,0.03
2013-3-23,50,39,31,36,31,20,86,73,52,0.00,40.00,6,4,14,0.00
2013-3-24,53,44,38,39,35,32,87,70,54,0.00,40.00,6,3,14,0.00
2013-3-25,47,42,40,41,38,35,97,86,70,0.00,40.00,11,4,16,0.00
2013-3-26,58,46,39,42,39,37,97,77,53,0.00,40.00,8,4,12,0.00
2013-3-27,53,47,44,47,44,39,98,90,71,0.00,40.00,16,8,23,0.22
2013-3-28,51,49,47,49,47,46,98,93,87,0.00,40.00,11,5,17,0.10
2013-3-29,66,55,46,51,47,43,98,75,51,0.00,40.00,5,3,10,0.00
2013-3-30,72,60,50,51,43,-100,91,60,37,0.00,40.00,16,5,22,0.04
2013-3-31,54,50,48,52,48,45,98,94,71,0.00,40.00,10,6,17,0.62
2013-4-1,53,48,45,50,47,44,98,95,84,0.00,40.00,8,4,12,0.14
2013-4-2,59,49,43,51,46,42,98,89,71,0.00,40.00,5,3,10,0.02
2013-4-3,62,53,47,52,46,42,93,77,63,0.00,40.00,10,5,15,0.01
2013-4-4,51,49,46,50,47,45,98,96,81,0.00,40.00,33,20,53,1.74
2013-4-5,47,46,46,47,46,45,99,99,98,0.00,40.00,33,22,51,1.25
2013-4-6,47,46,45,47,46,45,99,99,98,0.00,40.00,33,19,49,0.94
2013-4-7,47,41,35,47,41,34,99,99,98,0.00,40.00,33,12,54,1.70
2013-4-8,49,40,35,41,37,34,99,90,68,0.00,40.00,9,5,18,0.68
2013-4-9,60,49,37,43,38,28,96,66,45,0.00,40.00,7,4,14,0.02
2013-4-10,52,48,43,49,45,40,98,89,67,0.00,40.00,6,4,12,0.07
2013-4-11,53,44,37,42,40,36,98,86,66,0.00,40.00,9,6,22,0.01
2013-4-12,56,45,38,45,39,31,97,80,43,0.00,40.00,7,4,13,0.01
2013-4-13,48,41,33,43,36,31,97,86,62,0.00,40.00,8,5,17,0.16
2013-4-14,45,38,32,38,33,28,96,82,59,0.00,40.00,8,4,14,0.01
2013-4-15,45,38,33,39,35,31,97,89,69,0.00,40.00,10,6,21,0.18
2013-4-16,49,41,34,43,36,31,96,84,72,0.00,40.00,10,6,21,0.01
2013-4-17,54,42,34,43,37,33,96,83,62,0.00,40.00,8,4,17,0.01
2013-4-18,56,45,39,43,40,37,96,84,61,0.00,40.00,8,4,16,0.01
2013-4-19,50,46,42,49,45,41,98,95,90,0.00,40.00,6,4,12,0.14
2013-4-20,56,46,40,49,44,39,98,91,74,0.00,40.00,8,5,17,0.03
2013-4-21,60,49,41,48,44,40,98,84,57,0.00,40.00,7,5,18,0.01
2013-4-22,67,53,44,45,43,31,95,70,39,0.00,40.00,9,5,20,0.01
2013-4-23,69,58,49,38,28,13,58,33,17,0.00,40.00,11,6,32,0.01
2013-4-24,80,63,48,33,27,14,45,27,10,0.00,40.00,8,5,18,0.00
2013-4-25,71,52,43,46,41,14,96,69,11,0.00,40.00,6,4,12,0.00
2013-4-26,71,51,40,48,44,39,97,79,42,0.00,40.00,7,4,12,0.00
2013-4-27,66,54,44,49,42,33,96,64,43,0.00,40.00,6,5,13,0.00
2013-4-28,62,52,45,50,41,32,96,68,44,0.00,40.00,9,4,16,0.00
2013-4-29,56,49,44,48,44,38,97,84,58,0.00,40.00,9,5,21,0.00
2013-4-30,54,46,36,38,34,28,88,66,36,0.00,40.00,9,6,21,0.00
2013-5-1,74,54,38,39,30,26,69,43,19,0.00,40.00,8,5,15,0.00
2013-5-2,80,67,57,44,29,9,46,26,10,0.00,40.00,8,5,18,0.00
2013-5-3,80,65,55,43,36,30,45,35,19,0.00,40.00,9,6,23,0.00
2013-5-4,84,72,62,37,31,25,39,24,13,0.00,40.00,9,6,24,0.00
2013-5-5,75,59,48,48,39,29,95,55,22,0.00,40.00,15,7,26,0.03
2013-5-6,65,56,49,48,45,40,91,69,49,0.00,40.00,8,4,15,0.04
2013-5-7,59,50,46,49,46,40,98,86,61,0.00,40.00,10,6,17,0.01
2013-5-8,60,50,45,50,46,44,98,90,66,0.00,40.00,7,4,10,0.01
2013-5-9,60,49,44,51,46,43,98,92,72,0.00,40.00,7,4,11,0.01
2013-5-10,64,49,44,53,43,-100,98,88,58,0.00,40.00,6,3,11,0.00
2013-5-11,74,59,47,55,47,-100,98,70,37,0.00,40.00,6,4,12,0.00
2013-5-12,64,55,51,57,53,50,98,92,75,0.00,40.00,10,6,14,0.02
2013-5-13,56,51,45,52,49,44,98,94,81,0.00,40.00,12,5,17,0.01
2013-5-14,59,49,42,47,44,41,98,85,62,0.00,40.00,9,4,21,0.01
2013-5-15,61,50,44,47,40,30,94,70,48,0.00,40.00,14,6,19,0.01
2013-5-16,51,44,46,48,32,-100,99,95,87,0.00,40.00,13,7,18,0.18
2013-5-17,56,48,44,48,42,-100,99,90,69,0.00,40.00,5,2,12,0.17
2013-5-18,50,46,44,48,45,43,98,95,89,0.00,40.00,14,7,20,0.08
2013-5-19,59,50,44,50,47,43,99,90,69,0.00,40.00,9,5,19,0.04
2013-5-20,66,53,44,51,44,35,96,73,56,0.00,40.00,7,5,18,0.01
2013-5-21,46,42,38,44,41,36,98,95,82,0.00,40.00,23,10,37,0.77
2013-5-22,43,39,36,41,38,34,97,94,87,0.00,40.00,12,5,16,0.36
2013-5-23,55,46,38,45,41,37,97,85,66,0.00,40.00,7,3,12,0.06
2013-5-24,49,45,41,44,42,40,98,89,76,0.00,40.00,5,3,11,0.30
2013-5-25,55,48,40,47,44,39,98,88,72,0.00,40.00,15,6,21,0.09
2013-5-26,54,48,46,49,47,45,99,95,83,0.00,40.00,19,10,29,0.51
2013-5-27,51,49,46,51,48,45,100,99,96,0.00,40.00,28,19,46,1.63
2013-5-28,56,50,46,52,48,45,100,95,75,0.00,40.00,25,12,36,0.23
2013-5-29,50,48,44,49,47,43,99,98,97,0.00,40.00,25,8,36,1.09
2013-5-30,57,49,42,48,45,42,99,87,63,0.00,40.00,8,4,16,0.03
2013-5-31,61,51,40,51,45,39,97,82,67,0.00,40.00,8,5,18,0.01
2013-6-1,68,56,47,52,48,45,97,77,54,0.00,40.00,9,5,17,0.00
2013-6-2,62,53,45,53,48,44,98,87,70,0.00,40.00,9,6,22,0.00
2013-6-3,69,58,46,55,50,45,98,76,58,0.00,40.00,8,6,16,0.01
2013-6-4,80,63,53,55,45,36,83,54,31,0.00,40.00,8,5,17,0.01
2013-6-5,78,66,55,59,52,45,79,63,51,0.00,40.00,6,4,14,0.00
2013-6-6,74,62,53,60,53,43,88,73,56,0.00,40.00,6,4,13,0.00
2013-6-7,74,63,53,56,51,43,88,65,44,0.00,40.00,7,5,16,0.00
2013-6-8,77,66,54,56,52,46,93,64,43,0.00,40.00,7,5,23,0.00
2013-6-9,66,59,45,52,48,42,92,68,58,0.00,40.00,9,6,20,0.00
2013-6-10,59,51,43,47,45,42,96,80,61,0.00,40.00,11,7,24,0.00
2013-6-11,58,50,43,47,43,38,94,78,61,0.00,40.00,9,6,20,0.00
2013-6-12,57,48,41,48,44,39,95,84,68,0.00,40.00,9,6,19,0.00
2013-6-13,57,49,41,49,44,39,96,85,72,0.00,40.00,8,5,17,0.00
2013-6-14,68,56,44,53,47,38,96,72,51,0.00,40.00,7,4,14,0.00
2013-6-15,60,52,44,52,49,43,97,90,76,0.00,40.00,6,4,12,0.00
2013-6-16,60,51,45,52,47,38,97,87,62,0.00,40.00,7,4,12,0.00
2013-6-17,59,52,48,52,46,38,98,83,60,0.00,40.00,17,9,26,0.20
2013-6-18,53,49,46,50,48,45,98,96,83,0.00,40.00,14,9,20,0.17
2013-6-19,54,50,47,51,48,46,98,95,77,0.00,40.00,11,6,16,0.80
2013-6-20,60,50,45,50,46,44,97,88,69,0.00,40.00,8,4,14,0.16
2013-6-21,64,63,60,54,52,51,73,70,68,0.00,40.00,8,7,17,0.01
2013-6-22,68,62,56,56,52,46,97,73,46,0.00,40.00,8,5,10,0.00
2013-6-23,56,54,50,55,53,49,98,98,97,0.00,40.00,22,12,32,0.90
2013-6-24,53,51,49,52,49,48,98,97,86,0.00,40.00,25,17,48,0.72
2013-6-25,56,54,52,56,53,51,99,99,98,0.00,40.00,27,21,48,1.05
2013-6-26,62,57,53,58,56,53,100,96,84,0.00,40.00,20,14,31,0.59
2013-6-27,69,62,58,62,57,55,94,85,67,0.00,40.00,16,10,22,0.01
2013-6-28,76,66,56,61,55,49,92,68,48,0.00,40.00,7,4,12,0.00
2013-6-29,84,70,57,61,56,50,84,63,43,0.00,40.00,7,4,15,0.00
2013-6-30,75,66,59,62,58,56,93,77,63,0.00,40.00,7,4,12,0.00
2013-7-1,80,69,58,65,59,54,93,74,44,0.00,40.00,6,4,11,0.00
2013-7-2,80,69,62,68,63,58,97,82,61,0.00,40.00,8,4,15,0.00
2013-7-3,80,68,57,63,57,47,82,70,53,0.00,40.00,7,5,15,0.00
2013-7-4,67,60,53,54,48,41,83,66,53,0.00,40.00,10,6,24,0.00
2013-7-5,65,57,50,54,50,48,96,79,61,0.00,40.00,11,8,24,0.00
2013-7-6,66,55,48,54,50,47,96,86,63,0.00,40.00,9,6,18,0.00
2013-7-7,67,58,50,57,53,49,97,85,69,0.00,40.00,9,6,17,0.00
2013-7-8,77,59,51,60,53,49,96,81,55,0.00,40.00,8,4,14,0.01
2013-7-9,80,64,60,59,54,51,83,71,49,0.00,40.00,4,2,9,0.01
2013-7-10,75,61,53,59,47,-100,87,68,57,0.00,40.00,6,4,11,0.00
2013-7-11,67,57,47,53,48,44,90,75,59,0.00,40.00,8,5,17,0.00
2013-7-12,64,55,48,52,48,43,93,77,56,0.00,40.00,9,5,19,0.00
2013-7-13,75,59,50,54,47,41,77,65,46,0.00,40.00,8,5,15,0.00
2013-7-14,80,63,58,58,49,42,70,61,44,0.00,40.00,5,3,10,0.00
2013-7-15,80,65,60,56,52,49,71,64,40,0.00,40.00,10,6,13,0.00
2013-7-16,62,55,49,54,50,48,96,85,72,0.00,40.00,9,5,14,0.00
2013-7-17,63,55,49,53,51,48,97,86,69,0.00,40.00,7,5,15,0.00
2013-7-18,73,61,50,58,53,49,97,77,57,0.00,40.00,7,5,12,0.00
2013-7-19,71,60,51,55,52,48,94,75,58,0.00,40.00,7,5,16,0.00
2013-7-20,70,58,49,56,50,-100,97,81,61,0.00,40.00,8,6,14,0.00
2013-7-21,81,62,53,57,53,49,93,72,44,0.00,40.00,9,5,17,0.00
2013-7-22,79,65,60,56,53,50,75,66,43,0.00,40.00,7,4,12,0.00
2013-7-23,74,63,58,57,53,50,86,71,55,0.00,40.00,9,4,13,0.00
2013-7-24,78,67,59,59,54,48,77,64,46,0.00,40.00,9,4,11,0.00
2013-7-25,79,66,63,58,56,54,78,69,49,0.00,40.00,7,3,10,0.00
2013-7-26,80,66,61,56,52,46,79,62,43,0.00,40.00,6,3,10,0.00
2013-7-27,74,64,50,54,49,43,77,60,45,0.00,40.00,7,5,16,0.00
2013-7-28,66,57,47,52,48,43,89,75,59,0.00,40.00,8,5,15,0.00
2013-7-29,67,57,50,54,50,46,93,78,58,0.00,40.00,8,5,18,0.00
2013-7-30,62,55,49,53,51,48,96,86,70,0.00,40.00,7,4,12,0.00
2013-7-31,56,52,50,53,51,49,97,94,86,0.00,40.00,5,3,12,0.03
2013-8-1,58,54,51,55,52,50,97,94,85,0.00,40.00,5,3,11,0.07
2013-8-2,66,57,49,55,52,48,97,83,65,0.00,40.00,7,5,14,0.01
2013-8-3,73,63,56,58,54,50,89,74,52,0.00,40.00,7,5,14,0.00
2013-8-4,77,60,54,59,53,50,91,80,53,0.00,40.00,5,2,11,0.00
2013-8-5,69,60,55,55,54,52,92,80,61,0.00,40.00,5,2,7,0.00
2013-8-6,65,58,50,55,52,48,94,83,68,0.00,40.00,6,4,12,0.00
2013-8-7,58,50,47,55,49,46,97,95,90,0.00,40.00,9,4,12,0.01
2013-8-8,65,54,47,55,51,46,97,90,66,0.00,40.00,8,4,12,0.09
2013-8-9,68,57,52,59,55,51,97,92,69,0.00,40.00,9,4,13,0.10
2013-8-10,63,56,50,58,54,49,97,91,78,0.00,40.00,6,4,10,0.01
2013-8-11,66,56,51,58,53,50,98,90,72,0.00,40.00,6,4,13,0.00
2013-8-12,69,58,51,55,52,50,97,83,60,0.00,40.00,7,4,14,0.01
2013-8-13,71,60,51,56,49,-100,93,71,47,0.00,40.00,6,4,12,0.01
2013-8-14,72,64,55,61,49,-100,88,65,42,0.00,40.00,11,8,19,0.00
2013-8-15,72,61,60,63,50,-100,96,79,73,0.00,40.00,11,4,16,0.00
2013-8-16,71,61,54,61,54,-100,97,84,61,0.00,40.00,6,3,10,0.03
2013-8-17,71,60,54,59,53,-100,95,80,61,0.00,40.00,9,5,17,0.01
2013-8-18,77,66,56,58,56,53,94,72,51,0.00,40.00,8,5,15,0.00
2013-8-19,80,65,59,58,49,-100,80,65,45,0.00,40.00,8,5,15,0.00
2013-8-20,82,69,56,53,51,42,78,55,34,0.00,40.00,9,6,22,0.00
2013-8-21,68,62,51,54,50,39,95,67,36,0.00,40.00,6,3,11,0.00
2013-8-22,61,54,50,57,52,49,97,94,81,0.00,40.00,9,4,19,0.02
2013-8-23,63,55,51,56,52,50,97,91,75,0.00,40.00,7,4,12,0.01
2013-8-24,67,57,51,56,52,-100,97,84,68,0.00,40.00,6,4,12,0.01
2013-8-25,64,57,53,56,53,49,97,86,74,0.00,40.00,7,3,11,0.00
2013-8-26,65,58,53,55,49,45,95,73,51,0.00,40.00,21,12,29,0.01
2013-8-27,70,60,56,55,54,53,90,79,56,0.00,40.00,10,5,15,0.01
2013-8-28,68,65,60,59,58,56,89,78,69,0.00,40.00,16,12,23,0.00
2013-8-29,62,60,58,60,58,57,99,96,86,0.00,40.00,20,15,34,0.71
2013-8-30,70,63,59,63,60,58,99,91,75,0.00,40.00,7,3,13,0.03
2013-8-31,69,60,53,61,55,-100,97,87,66,0.00,40.00,9,3,13,0.01
2013-9-1,71,62,56,59,55,50,98,78,52,0.00,40.00,17,11,26,0.19
2013-9-2,66,60,55,59,56,52,98,88,64,0.00,40.00,17,12,26,0.29
2013-9-3,67,60,54,56,53,49,94,80,64,0.00,40.00,12,8,17,0.01
2013-9-4,68,59,54,58,54,50,96,83,62,0.00,40.00,5,3,11,0.00
2013-9-5,65,56,53,56,53,51,97,91,70,0.00,40.00,5,3,10,0.01
2013-9-6,69,59,51,57,53,50,97,83,64,0.00,40.00,9,5,17,0.01
2013-9-7,79,65,56,60,53,-100,88,67,41,0.00,40.00,7,5,13,0.00
2013-9-8,81,70,61,61,53,48,71,56,40,0.00,40.00,9,5,21,0.00
2013-9-9,88,74,65,59,54,49,70,51,31,0.00,40.00,8,5,19,0.00
2013-9-10,76,68,60,54,52,49,78,58,43,0.00,40.00,9,7,17,0.00
2013-9-11,68,59,54,59,55,52,97,87,69,0.00,40.00,15,8,20,0.00
2013-9-12,63,57,54,58,55,53,97,93,80,0.00,40.00,6,3,11,0.00
2013-9-13,64,56,51,59,54,50,97,94,79,0.00,40.00,7,4,10,0.02
2013-9-14,57,53,52,56,51,-100,98,96,95,0.00,40.00,8,4,10,0.04
2013-9-15,57,55,53,54,52,50,98,92,83,0.00,40.00,11,6,15,0.04
2013-9-16,67,58,53,55,52,49,96,79,56,0.00,40.00,8,4,18,0.01
2013-9-17,62,55,50,55,52,49,97,91,74,0.00,40.00,10,5,24,0.28
2013-9-18,58,51,48,51,48,45,97,90,71,0.00,40.00,4,2,7,0.28
2013-9-19,67,60,56,53,48,42,75,64,53,0.00,40.00,5,3,9,0.00
2013-9-20,60,56,54,55,52,42,98,87,59,0.00,40.00,17,10,27,0.85
2013-9-21,56,53,49,54,50,-100,98,93,82,0.00,40.00,18,10,29,0.52
2013-9-22,54,52,50,53,51,48,98,96,94,0.00,40.00,27,16,39,0.60
2013-9-23,58,55,52,55,52,50,98,92,80,0.00,40.00,12,7,21,0.32
2013-9-24,56,52,46,53,49,45,97,91,77,0.00,40.00,8,3,16,0.39
2013-9-25,55,48,42,47,44,40,96,88,71,0.00,40.00,7,4,16,0.48
2013-9-26,60,50,41,50,44,38,92,81,64,0.00,40.00,8,4,18,0.01
2013-9-27,60,52,45,53,46,40,97,80,57,0.00,40.00,9,4,14,0.03
2013-9-28,55,53,51,54,51,-100,98,97,97,0.00,40.00,39,25,61,0.78
2013-9-29,57,54,50,56,53,49,99,98,97,0.00,40.00,38,24,59,3.19
2013-9-30,57,52,47,51,48,46,98,89,68,0.00,40.00,13,8,43,2.34
2013-10-1,52,46,43,46,44,41,96,91,80,0.00,40.00,6,4,13,0.06
2013-10-2,56,48,40,46,42,38,95,81,57,0.00,40.00,6,4,14,0.05
2013-10-3,60,49,41,46,42,38,95,79,51,0.00,40.00,7,4,17,0.01
2013-10-4,72,61,52,44,35,26,51,39,28,0.00,40.00,6,4,12,0.01
2013-10-5,75,72,61,36,32,23,25,22,19,0.00,40.00,14,10,19,0.00
2013-10-6,68,58,51,44,32,22,77,40,23,0.00,40.00,19,9,27,0.00
2013-10-7,58,51,43,52,47,41,97,88,67,0.00,40.00,8,4,22,0.24
2013-10-8,55,48,42,47,43,38,95,83,68,0.00,40.00,8,5,19,0.03
2013-10-9,60,49,41,42,38,35,87,68,43,0.00,40.00,9,6,22,0.00
2013-10-10,61,51,43,46,42,36,95,73,53,0.00,40.00,8,5,16,0.00
2013-10-11,56,48,42,47,43,40,94,82,58,0.00,40.00,6,4,16,0.01
2013-10-12,55,46,42,47,41,-100,95,85,64,0.00,40.00,5,3,12,0.03
2013-10-13,61,49,42,46,42,37,92,76,55,0.00,40.00,7,4,12,0.01
2013-10-14,71,57,47,43,39,30,75,53,32,0.00,40.00,6,4,11,0.00
2013-10-15,74,65,57,42,33,22,44,31,20,0.00,40.00,7,4,11,0.00
2013-10-16,68,64,59,45,38,28,49,40,26,0.00,40.00,5,2,10,0.00
2013-10-17,68,62,56,49,41,29,66,47,31,0.00,40.00,5,3,7,0.00
2013-10-18,72,65,60,48,46,37,61,51,42,0.00,40.00,3,2,6,0.00
2013-10-19,71,62,57,53,44,-100,71,56,45,0.00,40.00,4,2,7,0.00
2013-10-20,68,59,55,52,47,45,79,65,53,0.00,40.00,4,1,7,0.00
2013-10-21,67,60,55,54,42,30,70,53,25,0.00,40.00,3,1,6,0.00
2013-10-22,67,56,43,51,46,37,94,71,46,0.00,40.00,6,3,9,0.00
2013-10-23,68,57,43,53,46,41,96,69,59,0.00,40.00,4,2,7,0.00
2013-10-24,63,53,42,48,43,37,95,71,49,0.00,40.00,9,4,12,0.00
2013-10-25,59,49,43,54,46,42,96,90,63,0.00,40.00,6,3,9,0.01
2013-10-26,66,58,53,48,40,-100,79,54,45,0.00,40.00,5,3,7,0.00
2013-10-27,56,46,41,47,44,39,96,91,67,0.00,40.00,10,6,24,0.06
2013-10-28,55,45,39,46,40,-100,96,84,69,0.00,40.00,6,4,14,0.01
2013-10-29,56,48,42,45,40,36,94,76,62,0.00,40.00,5,3,9,0.01
2013-10-30,55,47,42,45,40,34,91,77,63,0.00,40.00,5,3,8,0.00
2013-10-31,65,54,46,53,44,37,95,71,41,0.00,40.00,5,3,9,0.00
2013-11-1,65,57,51,53,49,45,87,75,58,0.00,40.00,10,4,14,0.01
2013-11-2,54,46,40,48,42,-100,96,88,76,0.00,40.00,19,8,25,0.43
2013-11-3,47,41,38,44,39,35,95,92,85,0.00,40.00,5,3,13,0.17
2013-11-4,47,43,36,45,39,33,96,88,62,0.00,40.00,6,3,8,0.08
2013-11-5,52,49,46,51,48,45,97,96,95,0.00,40.00,15,9,21,0.31
2013-11-6,58,53,49,53,50,48,96,91,81,0.00,40.00,8,3,11,0.03
2013-11-7,51,47,40,50,46,39,97,96,96,0.00,40.00,18,9,29,0.55
2013-11-8,54,45,38,45,40,35,96,81,54,0.00,40.00,5,3,10,0.13
2013-11-9,61,51,46,46,36,-100,79,60,36,0.00,40.00,8,3,12,0.01
2013-11-10,59,50,45,48,45,37,96,84,51,0.00,40.00,18,9,24,0.00
2013-11-11,59,53,49,47,39,35,92,59,41,0.00,40.00,25,17,34,0.04
2013-11-12,55,51,48,54,50,47,97,96,92,0.00,40.00,28,12,39,0.70
2013-11-13,62,52,45,49,46,34,97,79,49,0.00,40.00,6,4,10,0.01
2013-11-14,53,44,38,44,40,34,95,85,49,0.00,40.00,7,4,14,0.01
2013-11-15,51,42,36,41,38,34,94,85,64,0.00,40.00,7,4,16,0.01
2013-11-16,47,44,42,46,41,-100,96,92,86,0.00,40.00,8,4,14,0.41
2013-11-17,52,45,43,42,40,38,94,83,67,0.00,40.00,10,7,15,0.01
2013-11-18,49,45,43,48,42,37,97,87,71,0.00,40.00,29,20,45,1.02
2013-11-19,52,50,45,51,49,44,97,97,97,0.00,40.00,27,16,45,2.67
2013-11-20,51,42,36,47,38,28,97,87,69,0.00,40.00,11,6,24,1.21
2013-11-21,55,43,33,28,19,-2,75,42,10,0.00,40.00,8,5,21,0.01
2013-11-22,68,56,43,12,8,0,28,16,10,0.00,40.00,10,6,23,0.00
2013-11-23,-200,0,200,-100,-100,-100,12,12,12,0.00,40.00,4,4,6,0.00
2013-11-24,57,52,51,22,17,16,27,25,24,0.00,40.00,11,6,15,0.00
2013-11-25,58,50,46,34,29,18,59,45,29,0.00,40.00,13,7,17,0.00
2013-11-26,58,51,47,35,33,31,62,50,38,0.00,40.00,18,13,26,0.00
2013-11-27,60,55,49,38,32,29,51,43,34,0.00,40.00,11,5,15,0.00
2013-11-28,67,58,54,39,33,29,48,39,32,0.00,40.00,3,2,10,0.00
2013-11-29,64,54,47,41,34,27,77,50,32,0.00,40.00,4,3,11,0.00
2013-11-30,60,50,45,44,36,-100,77,62,44,0.00,40.00,5,4,8,0.00
2013-12-1,51,49,47,50,48,33,97,95,55,0.00,40.00,12,7,17,0.28
2013-12-2,49,42,33,48,41,32,98,97,95,0.00,40.00,17,9,25,1.95
2013-12-3,42,34,30,36,31,26,95,86,75,0.00,40.00,5,4,12,0.02
2013-12-4,41,31,25,26,21,15,90,69,42,0.00,40.00,7,4,14,0.01
2013-12-5,41,34,27,25,18,6,80,54,32,0.00,40.00,5,3,9,0.01
2013-12-6,38,33,29,37,31,26,95,93,82,0.00,40.00,15,10,22,0.30
2013-12-7,32,26,22,27,18,-100,94,73,57,0.00,40.00,9,5,19,0.08
2013-12-8,40,29,24,20,14,9,63,53,39,0.00,40.00,9,4,15,0.01
2013-12-9,50,36,26,25,16,8,54,44,30,0.00,40.00,9,4,16,0.00
2013-12-10,54,48,40,26,24,19,44,38,33,0.00,40.00,6,3,12,0.00
2013-12-11,56,47,46,35,32,27,64,56,33,0.00,40.00,6,4,9,0.00
2013-12-12,51,43,40,41,34,24,95,73,39,0.00,40.00,19,14,25,0.22
2013-12-13,55,45,42,46,42,40,95,87,66,0.00,40.00,13,6,19,0.21
2013-12-14,54,45,42,40,34,-100,86,71,60,0.00,40.00,5,3,8,0.00
2013-12-15,58,52,46,41,34,30,61,51,36,0.00,40.00,5,4,9,0.00
2013-12-16,65,60,56,38,30,23,49,35,20,0.00,40.00,4,3,6,0.00
2013-12-17,57,54,47,35,32,27,54,44,36,0.00,40.00,4,3,7,0.00
2013-12-18,48,42,38,42,36,30,95,81,57,0.00,40.00,7,5,17,0.00
2013-12-19,43,35,31,36,24,21,91,66,44,0.00,40.00,11,7,26,0.01
2013-12-20,49,42,33,44,29,10,96,64,29,0.00,40.00,5,3,10,0.21
2013-12-21,46,44,41,45,42,-100,97,95,96,0.00,40.00,5,3,9,0.30
2013-12-22,56,48,41,47,43,40,96,84,70,0.00,40.00,4,3,9,0.01
2013-12-23,57,48,46,47,44,41,93,84,58,0.00,40.00,5,3,10,0.01
2013-12-24,59,49,45,45,39,28,94,72,38,0.00,40.00,4,2,7,0.00
2013-12-25,54,51,48,33,31,30,56,47,41,0.00,40.00,5,5,9,0.00
2013-12-26,58,56,54,43,35,31,57,44,39,0.00,40.00,9,4,11,0.00
2013-12-27,53,46,41,42,36,25,94,72,34,0.00,40.00,14,6,20,0.00
2013-12-28,57,46,40,36,26,-100,78,49,24,0.00,40.00,9,6,26,0.00
2013-12-29,65,55,43,29,18,8,36,24,17,0.00,40.00,5,4,15,0.00
2013-12-30,57,52,48,33,25,19,43,35,24,0.00,40.00,16,8,22,0.00
2013-12-31,55,50,46,39,31,21,68,50,33,0.00,40.00,7,4,10,0.00
2014-1-1,65,60,55,39,34,29,48,38,31,0.00,40.00,4,3,7,0.00
2014-1-2,59,53,48,38,36,35,63,54,44,0.00,40.00,5,3,8,0.00